createdAt,value
2023-02-19T00:01:07.737Z,5.1
2023-02-19T00:06:37.952Z,5
2023-02-19T00:12:00.580Z,4.9
2023-02-19T00:17:50.438Z,5
2023-02-19T00:23:09.557Z,5.1
2023-02-19T00:28:54.081Z,5.1
2023-02-19T00:34:22.265Z,5
2023-02-19T00:39:49.391Z,4.7
2023-02-19T00:45:29.778Z,4.7
2023-02-19T00:51:01.756Z,4.7
2023-02-19T00:56:24.958Z,5.3
2023-02-19T01:01:59.107Z,4.4
2023-02-19T01:07:58.370Z,5.5
2023-02-19T01:13:25.647Z,5.2
2023-02-19T01:18:38.645Z,4.7
2023-02-19T01:24:34.296Z,4.5
2023-02-19T01:30:00.660Z,4.5
2023-02-19T01:35:44.085Z,4.4
2023-02-19T01:40:54.269Z,4.4
2023-02-19T01:46:47.052Z,4.9
2023-02-19T01:52:08.916Z,4.8
2023-02-19T01:57:31.318Z,4.9
2023-02-19T02:03:15.685Z,5
2023-02-19T02:08:56.999Z,4.9
2023-02-19T02:14:23.587Z,4.5
2023-02-19T02:19:45.402Z,5.1
2023-02-19T02:25:37.288Z,5.1
2023-02-19T02:30:57.555Z,4.9
2023-02-19T02:36:23.393Z,4.8
2023-02-19T02:42:07.465Z,4.6
2023-02-19T02:47:54.452Z,4.5
2023-02-19T02:53:04.489Z,4.7
2023-02-19T02:58:39.033Z,4.9
2023-02-19T03:04:22.866Z,5.6
2023-02-19T03:09:59.271Z,5.1
2023-02-19T03:15:21.538Z,5.2
2023-02-19T03:20:56.692Z,4.7
2023-02-19T03:26:23.575Z,4.3
2023-02-19T03:32:08.052Z,4.2
2023-02-19T03:37:28.085Z,4.7
2023-02-19T03:43:10.934Z,5.2
2023-02-19T03:48:41.856Z,5.4
2023-02-19T03:54:31.684Z,5.4
2023-02-19T03:59:42.153Z,5.1
2023-02-19T04:05:15.000Z,5.6
2023-02-19T04:10:57.098Z,5.8
2023-02-19T04:16:19.878Z,5.8
2023-02-19T04:22:14.244Z,5.2
2023-02-19T04:27:39.640Z,5.3
2023-02-19T04:33:11.698Z,6
2023-02-19T04:38:31.880Z,6
2023-02-19T04:44:24.694Z,6.3
2023-02-19T04:49:55.242Z,5.8
2023-02-19T04:55:34.677Z,5.7
2023-02-19T05:00:50.709Z,5.7
2023-02-19T05:06:20.236Z,6
2023-02-19T05:12:18.459Z,6.2
2023-02-19T05:17:52.386Z,6.5
2023-02-19T05:22:58.609Z,6.6
2023-02-19T05:28:52.976Z,6.4
2023-02-19T05:34:20.779Z,6.5
2023-02-19T05:40:01.159Z,6.4
2023-02-19T05:45:27.370Z,6.4
2023-02-19T05:51:11.979Z,6
2023-02-19T05:56:28.160Z,6.2
2023-02-19T06:01:57.603Z,6.2
2023-02-19T06:07:27.744Z,6.6
2023-02-19T06:13:00.924Z,6.6
2023-02-19T06:18:35.008Z,6.6
2023-02-19T06:24:18.907Z,6.3
2023-02-19T06:29:52.846Z,6.1
2023-02-19T06:35:38.051Z,6.2
2023-02-19T06:41:12.754Z,5.9
2023-02-19T06:46:17.645Z,5.6
2023-02-19T06:52:08.242Z,5.3
2023-02-19T06:57:23.668Z,5.5
2023-02-19T07:03:21.919Z,5.6
2023-02-19T07:08:40.451Z,5.5
2023-02-19T07:14:23.649Z,5.4
2023-02-19T07:19:38.957Z,5.2
2023-02-19T07:25:29.526Z,5.3
2023-02-19T07:30:44.722Z,5.7
2023-02-19T07:36:15.720Z,6.1
2023-02-19T07:42:09.689Z,6.3
2023-02-19T07:47:48.937Z,6.6
2023-02-19T07:53:13.027Z,6.9
2023-02-19T07:58:34.581Z,7.5
2023-02-19T08:04:06.785Z,8
2023-02-19T08:10:02.612Z,8.3
2023-02-19T08:15:34.902Z,8.9
2023-02-19T08:21:01.500Z,9.6
2023-02-19T08:26:30.049Z,10.2
2023-02-19T08:31:58.409Z,10.2
2023-02-19T08:37:36.019Z,10.3
2023-02-19T08:43:20.904Z,10.4
2023-02-19T08:49:10.965Z,10.5
2023-02-19T08:54:21.830Z,10.6
2023-02-19T09:00:18.328Z,10.8
2023-02-19T09:05:52.379Z,11
2023-02-19T09:11:08.157Z,12.5
2023-02-19T09:16:46.937Z,11.9
2023-02-19T09:22:16.482Z,12.5
2023-02-19T09:28:11.906Z,12.1
2023-02-19T09:33:34.704Z,11.8
2023-02-19T09:39:26.325Z,12
2023-02-19T09:44:45.209Z,12.5
2023-02-19T09:50:27.233Z,11.9
2023-02-19T09:55:58.270Z,11.7
2023-02-19T10:01:35.508Z,12.3
2023-02-19T10:07:16.256Z,13
2023-02-19T10:12:52.325Z,12.9
2023-02-19T10:18:28.604Z,13
2023-02-19T10:24:04.785Z,13.3
2023-02-19T10:29:19.501Z,13.5
2023-02-19T10:35:17.267Z,13
2023-02-19T10:40:40.259Z,13.5
2023-02-19T10:46:08.728Z,13.3
2023-02-19T10:51:37.017Z,13.3
2023-02-19T10:57:31.502Z,13.3
2023-02-19T11:02:55.887Z,13.7
2023-02-19T11:08:23.374Z,13.1
2023-02-19T11:14:03.429Z,13.1
2023-02-19T11:19:49.029Z,13.5
2023-02-19T11:25:20.984Z,13.8
2023-02-19T11:30:50.863Z,14.1
2023-02-19T11:36:37.633Z,13.9
2023-02-19T11:42:15.122Z,14.2
2023-02-19T11:47:31.391Z,14.8
2023-02-19T11:53:09.615Z,14.7
2023-02-19T11:58:43.778Z,15
2023-02-19T12:04:27.099Z,15.1
2023-02-19T12:09:58.927Z,15.2
2023-02-19T12:15:39.976Z,15.1
2023-02-19T12:20:53.682Z,13.8
2023-02-19T12:26:50.067Z,14.3
2023-02-19T12:32:19.036Z,14
2023-02-19T12:37:56.358Z,14.8
2023-02-19T12:43:26.176Z,14.9
2023-02-19T12:49:04.663Z,14.2
2023-02-19T12:54:36.640Z,14.1
2023-02-19T13:00:04.000Z,13.8
2023-02-19T13:05:40.933Z,13.5
2023-02-19T13:11:40.938Z,13.3
2023-02-19T13:17:14.140Z,13.2
2023-02-19T13:22:52.118Z,13.1
2023-02-19T13:28:20.442Z,13.2
2023-02-19T13:33:50.716Z,13.3
2023-02-19T13:39:12.108Z,13.1
2023-02-19T13:45:04.970Z,13.1
2023-02-19T13:50:30.360Z,13.3
2023-02-19T13:56:13.241Z,12.9
2023-02-19T14:02:01.849Z,12.8
2023-02-19T14:07:13.593Z,13
2023-02-19T14:12:52.233Z,12.9
2023-02-19T14:18:27.282Z,12.8
2023-02-19T14:24:07.224Z,12.3
2023-02-19T14:30:01.404Z,12.5
2023-02-19T14:35:34.573Z,12.5
2023-02-19T14:40:49.822Z,12.4
2023-02-19T14:46:44.963Z,12.4
2023-02-19T14:52:00.626Z,12.6
2023-02-19T14:57:51.881Z,12.2
2023-02-19T15:03:34.229Z,11.9
2023-02-19T15:08:58.825Z,12
2023-02-19T15:14:25.070Z,11.8
2023-02-19T15:20:00.928Z,11.8
2023-02-19T15:25:47.947Z,11.7
2023-02-19T15:31:16.969Z,11.6
2023-02-19T15:37:11.397Z,11.4
2023-02-19T15:42:25.720Z,11.2
2023-02-19T15:47:56.880Z,11.1
2023-02-19T15:53:54.875Z,11
2023-02-19T15:59:33.787Z,11
2023-02-19T16:05:08.019Z,10.9
2023-02-19T16:10:21.481Z,10.7
2023-02-19T16:16:02.627Z,10.6
2023-02-19T16:27:27.317Z,10.3
2023-02-19T16:32:43.730Z,10.3
2023-02-19T16:38:22.002Z,9.9
2023-02-19T16:44:11.381Z,9.9
2023-02-19T16:49:23.581Z,9.8
2023-02-19T16:55:00.180Z,9.5
2023-02-19T17:00:58.355Z,9.9
2023-02-19T17:06:07.952Z,9.6
2023-02-19T17:17:34.519Z,9.5
2023-02-19T17:22:58.727Z,9.6
2023-02-19T17:28:57.364Z,9.6
2023-02-19T17:34:26.792Z,9.7
2023-02-19T17:39:47.765Z,9.5
2023-02-19T17:45:26.283Z,9.4
2023-02-19T17:51:14.544Z,9.4
2023-02-19T17:56:27.915Z,9
2023-02-19T18:02:04.298Z,9.2
2023-02-19T18:07:42.606Z,9.1
2023-02-19T18:13:08.396Z,9.2
2023-02-19T18:18:56.642Z,8.6
2023-02-19T18:24:19.517Z,8.2
2023-02-19T18:30:10.094Z,8.5
2023-02-19T18:35:36.232Z,8.6
2023-02-19T18:41:24.250Z,8.8
2023-02-19T18:46:54.018Z,8.4
2023-02-19T18:52:11.837Z,8.4
2023-02-19T18:57:44.936Z,8.6
2023-02-19T19:03:43.708Z,8.6
2023-02-19T19:09:11.824Z,8.7
2023-02-19T19:14:51.932Z,8.1
2023-02-19T19:20:01.453Z,8.3
2023-02-19T19:25:38.854Z,7.8
2023-02-19T19:31:28.873Z,7.5
2023-02-19T19:36:56.828Z,7.1
2023-02-19T19:42:44.255Z,7.6
